createdAt,value
2019-01-06T00:01:16.068Z,0.38
2019-01-06T00:04:21.293Z,0.34
2019-01-06T00:07:11.122Z,0.31
2019-01-06T00:09:59.519Z,0.32
2019-01-06T00:12:47.736Z,0.25
2019-01-06T00:15:37.667Z,0.22
2019-01-06T00:18:33.569Z,0.20
2019-01-06T00:21:26.191Z,0.26
2019-01-06T00:24:34.475Z,0.33
2019-01-06T00:27:27.190Z,0.38
2019-01-06T00:30:15.656Z,0.40
2019-01-06T00:32:58.713Z,0.29
2019-01-06T00:35:54.413Z,0.33
2019-01-06T00:38:44.250Z,0.35
2019-01-06T00:41:40.949Z,0.35
2019-01-06T00:44:48.836Z,0.28
2019-01-06T00:47:37.361Z,0.29
2019-01-06T00:50:23.797Z,0.30
2019-01-06T00:53:28.681Z,0.31
2019-01-06T00:56:17.168Z,0.33
2019-01-06T00:59:09.082Z,0.32
2019-01-06T01:02:04.807Z,0.35
2019-01-06T01:05:07.044Z,0.34
2019-01-06T01:07:59.933Z,0.33
2019-01-06T01:10:48.327Z,0.29
2019-01-06T01:13:36.775Z,0.33
2019-01-06T01:16:25.215Z,0.35
2019-01-06T01:19:13.807Z,0.33
2019-01-06T01:22:09.643Z,0.36
2019-01-06T01:24:58.219Z,0.28
2019-01-06T01:27:48.102Z,0.26
2019-01-06T01:30:40.955Z,0.27
2019-01-06T01:33:42.844Z,0.31
2019-01-06T01:36:25.906Z,0.25
2019-01-06T01:39:15.822Z,0.15
2019-01-06T01:42:11.635Z,0.24
2019-01-06T01:45:01.509Z,0.22
2019-01-06T01:47:57.454Z,0.22
2019-01-06T01:50:46.194Z,0.21
2019-01-06T01:53:37.293Z,0.15
2019-01-06T01:56:33.219Z,0.13
2019-01-06T01:59:21.704Z,0.05
2019-01-06T02:02:21.087Z,0.12
2019-01-06T02:05:28.970Z,0.05
2019-01-06T02:08:25.804Z,0.02
2019-01-06T02:11:08.420Z,0.10
2019-01-06T02:13:57.272Z,0.12
2019-01-06T02:16:46.132Z,0.15
2019-01-06T02:19:36.641Z,0.14
2019-01-06T02:22:23.540Z,0.17
2019-01-06T02:25:12.123Z,0.25
2019-01-06T02:28:08.128Z,0.32
2019-01-06T02:30:52.096Z,0.23
2019-01-06T02:33:37.301Z,0.29
2019-01-06T02:36:26.167Z,0.37
2019-01-06T02:39:14.640Z,0.32
2019-01-06T02:42:06.417Z,0.36
2019-01-06T02:45:08.270Z,0.38
2019-01-06T02:47:56.866Z,0.38
2019-01-06T02:50:57.653Z,0.30
2019-01-06T02:53:52.309Z,0.30
2019-01-06T02:56:40.864Z,0.32
2019-01-06T02:59:29.600Z,0.32
2019-01-06T03:02:19.434Z,0.39
2019-01-06T03:04:58.224Z,0.35
2019-01-06T03:07:48.040Z,0.38
2019-01-06T03:10:50.162Z,0.38
2019-01-06T03:13:31.462Z,0.31
2019-01-06T03:16:24.496Z,0.40
2019-01-06T03:19:14.481Z,0.32
2019-01-06T03:22:03.754Z,0.35
2019-01-06T03:24:47.494Z,0.30
2019-01-06T03:27:55.761Z,0.26
2019-01-06T03:30:48.630Z,0.22
2019-01-06T03:33:37.418Z,0.20
2019-01-06T03:36:29.041Z,0.22
2019-01-06T03:39:22.092Z,0.33
2019-01-06T03:42:17.515Z,0.41
2019-01-06T03:45:19.549Z,0.49
2019-01-06T03:48:21.813Z,0.46
2019-01-06T03:51:14.654Z,0.48
2019-01-06T03:54:05.312Z,0.55
2019-01-06T03:56:53.677Z,0.62
2019-01-06T03:59:49.642Z,0.61
2019-01-06T04:02:39.509Z,0.63
2019-01-06T04:05:29.354Z,0.59
2019-01-06T04:08:28.278Z,0.58
2019-01-06T04:11:15.376Z,0.58
2019-01-06T04:14:13.518Z,0.60
2019-01-06T04:17:18.521Z,0.57
2019-01-06T04:20:14.145Z,0.60
2019-01-06T04:23:02.980Z,0.61
2019-01-06T04:25:51.282Z,0.60
2019-01-06T04:28:41.141Z,0.61
2019-01-06T04:31:34.154Z,0.61
2019-01-06T04:34:22.875Z,0.63
2019-01-06T04:37:11.638Z,0.69
2019-01-06T04:40:06.514Z,0.74
2019-01-06T04:42:54.903Z,0.69
2019-01-06T04:45:44.731Z,0.71
2019-01-06T04:48:27.645Z,0.74
2019-01-06T04:51:17.930Z,0.77
2019-01-06T04:54:13.702Z,0.73
2019-01-06T04:57:02.375Z,0.77
2019-01-06T04:59:51.942Z,0.77
2019-01-06T05:02:49.035Z,0.75
2019-01-06T05:05:54.223Z,0.76
2019-01-06T05:08:46.894Z,0.72
2019-01-06T05:11:33.366Z,0.75
2019-01-06T05:14:29.516Z,0.75
2019-01-06T05:17:19.281Z,0.72
2019-01-06T05:20:15.342Z,0.74
2019-01-06T05:23:20.844Z,0.75
2019-01-06T05:26:25.977Z,0.76
2019-01-06T05:29:14.803Z,0.75
2019-01-06T05:32:03.533Z,0.77
2019-01-06T05:34:52.207Z,0.77
2019-01-06T05:37:48.079Z,0.73
2019-01-06T05:40:42.866Z,0.72
2019-01-06T05:43:31.876Z,0.75
2019-01-06T05:46:21.918Z,0.74
2019-01-06T05:49:14.821Z,0.76
2019-01-06T05:52:16.966Z,0.75
2019-01-06T05:55:12.866Z,0.79
2019-01-06T05:58:01.629Z,0.75
2019-01-06T06:01:09.550Z,0.75
2019-01-06T06:04:08.035Z,0.76
2019-01-06T06:06:56.758Z,0.74
2019-01-06T06:09:52.485Z,0.78
2019-01-06T06:12:54.396Z,0.75
2019-01-06T06:15:59.333Z,0.71
2019-01-06T06:18:58.074Z,0.75
2019-01-06T06:21:46.872Z,0.73
2019-01-06T06:24:35.250Z,0.69
2019-01-06T06:27:24.092Z,0.69
2019-01-06T06:30:14.778Z,0.67
2019-01-06T06:33:23.131Z,0.69
2019-01-06T06:36:11.696Z,0.69
2019-01-06T06:39:00.452Z,0.69
2019-01-06T06:41:48.552Z,0.69
2019-01-06T06:44:50.765Z,0.73
2019-01-06T06:47:43.393Z,0.73
2019-01-06T06:50:36.764Z,0.78
2019-01-06T06:53:37.924Z,0.74
2019-01-06T06:56:26.891Z,0.73
2019-01-06T06:59:32.107Z,0.72
2019-01-06T07:03:10.131Z,0.73
2019-01-06T07:06:06.583Z,0.72
2019-01-06T07:08:57.334Z,0.73
2019-01-06T07:11:49.938Z,0.77
2019-01-06T07:14:32.885Z,0.75
2019-01-06T07:18:08.941Z,0.82
2019-01-06T07:21:02.927Z,0.77
2019-01-06T07:23:55.849Z,0.78
2019-01-06T07:26:49.523Z,0.82
2019-01-06T07:29:37.935Z,0.82
2019-01-06T07:32:24.510Z,0.81
2019-01-06T07:35:13.098Z,0.77
2019-01-06T07:38:21.375Z,0.84
2019-01-06T07:41:09.099Z,0.84
2019-01-06T07:44:12.078Z,1.26
2019-01-06T07:47:00.583Z,1.46
2019-01-06T07:49:49.125Z,1.55
2019-01-06T07:52:39.009Z,1.59
2019-01-06T07:55:27.747Z,1.59
2019-01-06T07:58:09.718Z,1.69
2019-01-06T08:00:58.119Z,1.54
2019-01-06T08:03:49.081Z,1.26
2019-01-06T08:06:37.770Z,1.17
2019-01-06T08:09:25.300Z,1.15
2019-01-06T08:12:13.093Z,1.04
2019-01-06T08:15:01.492Z,1.06
2019-01-06T08:18:09.746Z,0.98
2019-01-06T08:21:05.817Z,0.94
2019-01-06T08:23:54.225Z,0.96
2019-01-06T08:26:42.969Z,1.03
2019-01-06T08:29:44.861Z,1.02
2019-01-06T08:32:49.844Z,0.96
2019-01-06T08:35:38.444Z,1.03
2019-01-06T08:38:34.494Z,1.02
2019-01-06T08:41:24.387Z,1.09
2019-01-06T08:44:12.861Z,1.11
2019-01-06T08:47:05.753Z,1.09
2019-01-06T08:49:54.475Z,1.17
2019-01-06T08:52:45.015Z,1.20
2019-01-06T08:55:50.028Z,1.18
2019-01-06T08:58:45.913Z,1.22
2019-01-06T09:01:34.405Z,1.26
2019-01-06T09:04:23.093Z,1.15
2019-01-06T09:07:11.688Z,1.22
2019-01-06T09:09:59.442Z,1.20
2019-01-06T09:12:48.392Z,1.22
2019-01-06T09:15:44.029Z,1.33
2019-01-06T09:18:48.951Z,1.39
2019-01-06T09:21:37.311Z,1.39
2019-01-06T09:24:31.318Z,1.34
2019-01-06T09:27:22.377Z,1.39
2019-01-06T09:30:11.216Z,1.38
2019-01-06T09:33:13.612Z,1.43
2019-01-06T09:36:10.899Z,1.43
2019-01-06T09:39:07.980Z,1.46
2019-01-06T09:42:03.775Z,1.50
2019-01-06T09:44:52.696Z,1.48
2019-01-06T09:48:01.009Z,1.42
2019-01-06T09:50:54.016Z,1.40
2019-01-06T09:53:42.863Z,1.42
2019-01-06T09:56:31.541Z,1.45
2019-01-06T09:59:21.412Z,1.45
2019-01-06T10:02:17.130Z,1.56
2019-01-06T10:05:06.989Z,1.50
2019-01-06T10:08:06.960Z,1.58
2019-01-06T10:11:00.126Z,1.53
2019-01-06T10:13:48.871Z,1.50
2019-01-06T10:16:38.083Z,1.49
2019-01-06T10:19:43.143Z,1.51
2019-01-06T10:22:26.318Z,1.49
2019-01-06T10:25:14.834Z,1.50
2019-01-06T10:28:19.826Z,1.57
2019-01-06T10:31:22.162Z,1.50
2019-01-06T10:34:15.085Z,1.49
2019-01-06T10:37:03.571Z,1.52
2019-01-06T10:39:53.455Z,1.54
2019-01-06T10:42:58.630Z,1.53
2019-01-06T10:46:03.509Z,1.52
2019-01-06T10:48:52.446Z,1.53
2019-01-06T10:51:40.591Z,1.59
2019-01-06T10:54:39.318Z,1.60
2019-01-06T10:57:44.368Z,1.54
2019-01-06T11:00:43.033Z,1.49
2019-01-06T11:03:47.967Z,1.50
2019-01-06T11:06:40.601Z,1.49
2019-01-06T11:09:42.873Z,1.55
2019-01-06T11:12:31.351Z,1.50
2019-01-06T11:15:27.273Z,1.50
2019-01-06T11:18:15.879Z,1.57
2019-01-06T11:20:57.838Z,1.53
2019-01-06T11:23:57.025Z,1.52
2019-01-06T11:26:59.193Z,1.52
2019-01-06T11:29:49.116Z,1.53
2019-01-06T11:32:37.686Z,1.59
2019-01-06T11:35:26.212Z,1.59
2019-01-06T11:38:14.640Z,1.52
2019-01-06T11:41:10.578Z,1.59
2019-01-06T11:43:59.139Z,1.55
2019-01-06T11:47:16.367Z,1.63
2019-01-06T11:50:12.280Z,1.62
2019-01-06T11:53:02.157Z,1.60
2019-01-06T11:56:07.430Z,1.64
2019-01-06T11:58:57.138Z,1.63
2019-01-06T12:01:48.258Z,1.62
2019-01-06T12:04:36.872Z,1.62
2019-01-06T12:07:25.603Z,1.52
2019-01-06T12:10:14.633Z,1.49
2019-01-06T12:13:00.921Z,1.56
2019-01-06T12:16:09.041Z,1.58
2019-01-06T12:18:57.562Z,1.62
2019-01-06T12:21:45.999Z,1.65
2019-01-06T12:24:34.880Z,1.62
2019-01-06T12:27:30.856Z,1.62
2019-01-06T12:30:23.476Z,1.59
2019-01-06T12:33:22.223Z,1.61
2019-01-06T12:36:17.853Z,1.63
2019-01-06T12:39:07.745Z,1.69
2019-01-06T12:42:13.019Z,1.62
2019-01-06T12:45:11.932Z,1.54
2019-01-06T12:48:17.211Z,1.56
2019-01-06T12:51:19.453Z,1.58
2019-01-06T12:54:08.278Z,1.52
2019-01-06T12:56:56.747Z,1.54
2019-01-06T12:59:58.718Z,1.55
2019-01-06T13:02:47.139Z,1.60
2019-01-06T13:05:46.016Z,1.57
2019-01-06T13:08:48.285Z,1.61
2019-01-06T13:11:50.424Z,1.75
2019-01-06T13:14:37.142Z,1.67
2019-01-06T13:17:21.919Z,1.70
2019-01-06T13:20:10.742Z,1.69
2019-01-06T13:23:19.023Z,1.70
2019-01-06T13:26:08.915Z,1.67
2019-01-06T13:29:14.073Z,1.76
2019-01-06T13:32:12.664Z,1.68
2019-01-06T13:35:01.441Z,1.75
2019-01-06T13:37:50.485Z,1.53
2019-01-06T13:40:39.100Z,1.36
2019-01-06T13:43:35.100Z,1.23
2019-01-06T13:46:40.396Z,1.19
2019-01-06T13:49:28.502Z,1.22
2019-01-06T13:52:27.475Z,1.27
2019-01-06T13:55:17.349Z,1.20
2019-01-06T13:58:00.460Z,1.09
2019-01-06T14:00:43.063Z,1.10
2019-01-06T14:03:39.717Z,1.13
2019-01-06T14:06:28.263Z,1.06
2019-01-06T14:09:36.595Z,1.05
2019-01-06T14:12:35.283Z,1.00
2019-01-06T14:15:24.052Z,0.86
2019-01-06T14:18:12.625Z,0.86
2019-01-06T14:21:11.653Z,0.89
2019-01-06T14:24:01.518Z,0.87
2019-01-06T14:26:50.010Z,0.80
2019-01-06T14:29:34.397Z,0.86
2019-01-06T14:32:36.378Z,0.82
2019-01-06T14:35:29.243Z,0.77
2019-01-06T14:38:19.142Z,0.81
2019-01-06T14:41:24.508Z,0.84
2019-01-06T14:44:26.780Z,0.83
2019-01-06T14:47:15.507Z,0.77
2019-01-06T14:50:04.305Z,0.74
2019-01-06T14:52:57.010Z,0.72
2019-01-06T14:55:58.911Z,0.71
2019-01-06T14:58:48.865Z,0.71
2019-01-06T15:01:46.855Z,0.78
2019-01-06T15:04:35.416Z,0.85
2019-01-06T15:07:24.204Z,0.91
2019-01-06T15:10:12.759Z,0.93
2019-01-06T15:13:00.222Z,0.90
2019-01-06T15:16:05.548Z,0.95
2019-01-06T15:19:07.857Z,0.94
2019-01-06T15:22:16.201Z,0.98
2019-01-06T15:25:04.659Z,1.00
2019-01-06T15:28:00.640Z,0.94
2019-01-06T15:30:55.547Z,0.89
2019-01-06T15:33:43.447Z,0.91
2019-01-06T15:36:33.469Z,1.09
2019-01-06T15:39:26.799Z,1.00
2019-01-06T15:42:22.625Z,0.95
2019-01-06T15:45:12.566Z,0.94
2019-01-06T15:48:12.449Z,1.00
2019-01-06T15:51:02.323Z,0.96
2019-01-06T15:53:51.103Z,0.98
2019-01-06T15:56:44.072Z,0.98
2019-01-06T15:59:49.200Z,1.01
2019-01-06T16:02:44.903Z,0.95
2019-01-06T16:05:54.316Z,0.99
2019-01-06T16:08:54.650Z,1.03
2019-01-06T16:11:52.016Z,1.06
2019-01-06T16:14:55.041Z,1.05
2019-01-06T16:17:47.705Z,0.95
2019-01-06T16:20:30.659Z,0.96
2019-01-06T16:23:38.731Z,1.02
2019-01-06T16:26:34.877Z,1.07
2019-01-06T16:29:27.575Z,1.06
2019-01-06T16:32:26.265Z,1.09
2019-01-06T16:35:14.988Z,1.09
2019-01-06T16:38:03.745Z,1.12
2019-01-06T16:40:47.077Z,1.17
2019-01-06T16:43:31.267Z,1.13
2019-01-06T16:46:19.720Z,1.13
2019-01-06T16:49:08.565Z,1.12
2019-01-06T16:52:01.562Z,1.11
2019-01-06T16:55:04.467Z,1.14
2019-01-06T16:57:53.238Z,1.24
2019-01-06T17:00:43.081Z,1.18
2019-01-06T17:03:43.667Z,1.29
2019-01-06T17:06:43.932Z,1.13
2019-01-06T17:09:32.681Z,1.05
2019-01-06T17:12:20.738Z,1.03
2019-01-06T17:15:10.680Z,1.03
2019-01-06T17:18:09.946Z,1.00
2019-01-06T17:20:58.508Z,0.95
2019-01-06T17:23:51.441Z,1.04
2019-01-06T17:26:50.565Z,1.05
2019-01-06T17:29:40.433Z,1.00
2019-01-06T17:32:29.066Z,1.03
2019-01-06T17:35:15.178Z,0.99
2019-01-06T17:38:03.979Z,1.02
2019-01-06T17:40:52.819Z,1.00
2019-01-06T17:43:48.845Z,1.16
2019-01-06T17:46:56.994Z,1.14
2019-01-06T17:50:04.956Z,1.19
2019-01-06T17:52:53.352Z,1.11
2019-01-06T17:56:01.249Z,1.04
2019-01-06T17:58:51.102Z,1.01
2019-01-06T18:01:43.792Z,0.93
2019-01-06T18:04:32.374Z,0.97
2019-01-06T18:07:25.045Z,0.97
2019-01-06T18:10:22.076Z,0.94
2019-01-06T18:13:13.371Z,1.04
2019-01-06T18:16:22.946Z,1.00
2019-01-06T18:19:19.259Z,0.98
2019-01-06T18:22:21.247Z,0.91
2019-01-06T18:25:09.963Z,0.94
2019-01-06T18:28:07.302Z,1.07
2019-01-06T18:31:12.505Z,1.04
2019-01-06T18:34:01.014Z,0.92
2019-01-06T18:36:53.790Z,0.77
2019-01-06T18:39:42.689Z,0.85
2019-01-06T18:42:31.465Z,0.89
2019-01-06T18:45:30.205Z,0.85
2019-01-06T18:48:23.179Z,0.93
2019-01-06T18:51:11.964Z,1.04
2019-01-06T18:54:04.729Z,0.90
2019-01-06T18:57:03.877Z,0.85
2019-01-06T18:59:45.518Z,0.69
2019-01-06T19:02:34.305Z,0.62
2019-01-06T19:05:24.165Z,0.62
2019-01-06T19:08:14.010Z,0.71
2019-01-06T19:11:03.496Z,0.77
2019-01-06T19:13:59.685Z,0.81
2019-01-06T19:16:55.817Z,0.84
2019-01-06T19:19:51.860Z,0.86
2019-01-06T19:22:41.432Z,0.89
2019-01-06T19:25:29.832Z,0.80
2019-01-06T19:28:18.392Z,0.73
2019-01-06T19:31:08.241Z,0.73
2019-01-06T19:33:58.087Z,0.68
2019-01-06T19:36:51.027Z,0.73
2019-01-06T19:39:55.289Z,0.61
2019-01-06T19:42:45.145Z,0.64
2019-01-06T19:45:42.738Z,0.64
2019-01-06T19:48:31.393Z,0.67
2019-01-06T19:51:24.036Z,0.73
2019-01-06T19:54:13.970Z,0.77
2019-01-06T19:57:02.733Z,0.70
2019-01-06T20:00:01.387Z,0.76
2019-01-06T20:02:54.524Z,0.78
2019-01-06T20:05:44.380Z,0.75
2019-01-06T20:08:33.300Z,0.75
2019-01-06T20:11:21.954Z,0.72
2019-01-06T20:14:14.115Z,0.68
2019-01-06T20:17:04.105Z,0.67
2019-01-06T20:19:53.964Z,0.77
2019-01-06T20:22:42.633Z,0.72
2019-01-06T20:25:44.619Z,0.67
2019-01-06T20:28:33.304Z,0.72
2019-01-06T20:31:41.339Z,0.75
2019-01-06T20:34:31.369Z,0.71
2019-01-06T20:37:20.072Z,0.68
2019-01-06T20:40:08.665Z,0.70
2019-01-06T20:42:57.739Z,0.61
2019-01-06T20:45:54.930Z,0.50
2019-01-06T20:48:44.870Z,0.39
2019-01-06T20:51:33.878Z,0.33
2019-01-06T20:54:25.791Z,0.40
2019-01-06T20:57:28.013Z,0.48
2019-01-06T21:00:16.770Z,0.54
2019-01-06T21:03:10.271Z,0.52
2019-01-06T21:06:12.243Z,0.45
2019-01-06T21:09:01.477Z,0.51
2019-01-06T21:12:05.333Z,0.58
2019-01-06T21:14:53.726Z,0.60
2019-01-06T21:17:52.640Z,0.54
2019-01-06T21:20:52.163Z,0.57
2019-01-06T21:23:40.913Z,0.54
2019-01-06T21:26:29.418Z,0.51
2019-01-06T21:29:29.655Z,0.41
2019-01-06T21:32:11.755Z,0.31
2019-01-06T21:35:17.448Z,0.31
2019-01-06T21:38:12.012Z,0.36
2019-01-06T21:41:01.142Z,0.35
2019-01-06T21:43:57.389Z,0.41
2019-01-06T21:46:46.073Z,0.46
2019-01-06T21:49:36.095Z,0.32
2019-01-06T21:52:23.067Z,0.18
2019-01-06T21:55:12.406Z,0.23
2019-01-06T21:58:08.264Z,0.11
2019-01-06T22:00:56.851Z,0.24
2019-01-06T22:03:45.480Z,0.23
2019-01-06T22:06:47.600Z,0.24
2019-01-06T22:09:37.505Z,0.31
2019-01-06T22:12:30.190Z,0.28
2019-01-06T22:15:19.553Z,0.30
2019-01-06T22:18:18.590Z,0.35
2019-01-06T22:21:08.576Z,0.38
2019-01-06T22:24:01.729Z,0.41
2019-01-06T22:26:46.098Z,0.52
2019-01-06T22:29:34.794Z,0.56
2019-01-06T22:32:27.433Z,0.48
2019-01-06T22:35:20.142Z,0.40
2019-01-06T22:38:09.957Z,0.35
2019-01-06T22:40:58.694Z,0.31
2019-01-06T22:43:48.614Z,0.37
2019-01-06T22:46:42.629Z,0.44
2019-01-06T22:49:31.274Z,0.45
2019-01-06T22:52:37.049Z,0.37
2019-01-06T22:55:31.578Z,0.30
2019-01-06T22:58:20.095Z,0.39
2019-01-06T23:01:10.054Z,0.35
2019-01-06T23:04:02.847Z,0.39
2019-01-06T23:06:58.580Z,0.41
2019-01-06T23:09:54.243Z,0.43
2019-01-06T23:12:43.048Z,0.49
2019-01-06T23:15:32.887Z,0.51
2019-01-06T23:18:21.569Z,0.55
2019-01-06T23:21:11.421Z,0.57
2019-01-06T23:24:07.326Z,0.49
2019-01-06T23:27:03.066Z,0.45
2019-01-06T23:30:11.188Z,0.36
2019-01-06T23:33:07.102Z,0.41
2019-01-06T23:35:56.984Z,0.52
2019-01-06T23:38:45.789Z,0.52
2019-01-06T23:41:53.865Z,0.56
2019-01-06T23:44:56.061Z,0.53
2019-01-06T23:47:48.945Z,0.59
2019-01-06T23:50:38.810Z,0.63
2019-01-06T23:53:31.750Z,0.61
2019-01-06T23:56:27.421Z,0.53
2019-01-06T23:59:35.704Z,0.54
